Terminal Aerodrome Forecast
Issued by NWS

Home | Current Version | Previous Version | Text Only | Print | Product List | Glossary On
Versions: 1 2 3 4 5 6 7 8 9 10 11 12
992
FTUS43 KAPX 190539
TAFMBL
TAF
KMBL 190539Z 1906/2006 24012G23KT P6SM SCT150
     FM190900 28008KT P6SM FEW250
     FM191600 28010G16KT P6SM SKC
     FM200000 21004KT P6SM SKC=

USA.gov is the U.S. government's official web portal to all federal, state and local government web resources and services.